Time;durP1;ratioP1;P1;durP2;ratioP2;P2;SDS_P1;SDS_P2;PMS_P1;PMS_P2;Temp;Humidity;BMP_temperature;BMP_pressure;BME280_temperature;BME280_humidity;BME280_pressure;Samples;Min_cycle;Max_cycle;Signal;HPM_P1;HPM_P2
2022/12/17 13:06:57;;;;;;;143.60;57.53;;;-3.50;99.90;;;;;;5088062;28;20104;-78
2022/12/17 13:09:26;;;;;;;165.98;65.13;;;-3.60;99.90;;;;;;5087996;28;20115;-78
2022/12/17 13:12:01;;;;;;;152.20;62.60;;;-3.50;99.90;;;;;;5086385;28;20405;-74
2022/12/17 13:14:44;;;;;;;142.35;55.75;;;-3.50;99.90;;;;;;5088028;28;20065;-74
2022/12/17 13:17:13;;;;;;;142.63;56.22;;;-3.60;99.90;;;;;;5085748;28;20069;-74
2022/12/17 13:19:46;;;;;;;138.32;58.50;;;-3.50;99.90;;;;;;5085153;28;20059;-75
2022/12/17 13:22:14;;;;;;;139.52;56.42;;;-3.40;99.90;;;;;;5085489;28;20025;-75
2022/12/17 13:24:42;;;;;;;112.72;49.67;;;-3.60;99.90;;;;;;5083553;28;20524;-75
2022/12/17 13:27:33;;;;;;;301.55;120.40;;;-3.60;99.90;;;;;;5084326;28;20485;-78
2022/12/17 13:30:16;;;;;;;414.98;170.07;;;-3.60;99.90;;;;;;5085809;28;20166;-78
2022/12/17 13:33:19;;;;;;;274.83;101.45;;;-3.60;99.90;;;;;;5088186;28;20492;-78
2022/12/17 13:36:03;;;;;;;264.50;104.63;;;-3.60;99.90;;;;;;5086877;28;20020;-79
2022/12/17 13:38:57;;;;;;;161.80;60.33;;;-3.60;99.90;;;;;;5084745;28;20530;-74
2022/12/17 13:41:27;;;;;;;;;;;-3.60;99.90;;;;;;5095787;28;20114;-75
2022/12/17 13:43:56;;;;;;;187.70;67.25;;;-3.70;99.90;;;;;;5094491;28;19950;-78
2022/12/17 13:46:27;;;;;;;156.90;56.85;;;-3.70;99.90;;;;;;5093832;28;20032;-74
2022/12/17 13:49:02;;;;;;;153.73;53.13;;;-3.70;99.90;;;;;;5089363;28;20049;-77
2022/12/17 13:51:32;;;;;;;195.82;68.20;;;-3.70;99.90;;;;;;5090225;28;20389;-74
2022/12/17 13:54:01;;;;;;;178.10;62.42;;;-3.80;99.90;;;;;;5093314;28;20027;-77
2022/12/17 13:56:33;;;;;;;147.68;55.50;;;-3.80;99.90;;;;;;5093271;28;20016;-74
2022/12/17 13:59:01;;;;;;;195.00;68.95;;;-3.80;99.90;;;;;;5084975;28;20078;-74
2022/12/17 14:01:31;;;;;;;203.93;76.88;;;-3.90;99.90;;;;;;5083454;28;20377;-75
2022/12/17 14:03:59;;;;;;;92.38;39.50;;;-3.90;99.90;;;;;;5081093;28;20052;-75
2022/12/17 14:06:35;;;;;;;173.10;66.35;;;-4.00;99.90;;;;;;5087561;28;20547;-78
2022/12/17 14:09:02;;;;;;;128.20;51.97;;;-4.10;99.90;;;;;;5085334;28;20473;-78
2022/12/17 14:14:32;;;;;;;230.70;87.35;;;-4.00;99.90;;;;;;5095368;28;20047;-74
2022/12/17 14:16:59;;;;;;;151.40;59.17;;;-4.00;99.90;;;;;;5093563;28;20097;-77
2022/12/17 14:19:26;;;;;;;167.93;60.08;;;-4.00;99.90;;;;;;5094816;28;20048;-75
2022/12/17 14:21:52;;;;;;;167.88;64.80;;;-4.00;99.90;;;;;;5095209;28;20381;-77
2022/12/17 14:24:22;;;;;;;157.40;60.63;;;-4.00;99.90;;;;;;5094760;28;20031;-75
2022/12/17 14:26:49;;;;;;;133.80;52.92;;;-4.00;99.90;;;;;;5094989;28;20024;-78
2022/12/17 14:29:31;;;;;;;166.77;58.63;;;-4.00;99.90;;;;;;5094780;28;20082;-76
2022/12/17 14:32:03;;;;;;;157.63;57.33;;;-4.10;99.90;;;;;;5094099;28;20024;-77
2022/12/17 14:34:40;;;;;;;97.30;37.35;;;-4.10;99.90;;;;;;5094662;28;20028;-77
2022/12/17 14:37:16;;;;;;;91.57;40.53;;;-4.10;99.90;;;;;;5096286;28;20085;-77
2022/12/17 14:39:46;;;;;;;206.70;77.63;;;-4.10;99.90;;;;;;5085259;28;20020;-78
2022/12/17 14:42:28;;;;;;;143.32;50.33;;;-4.20;99.90;;;;;;5085850;28;20031;-77
2022/12/17 14:45:04;;;;;;;106.55;48.35;;;-4.20;99.90;;;;;;5092581;28;20016;-78
2022/12/17 14:47:32;;;;;;;113.80;44.17;;;-4.10;99.90;;;;;;5089963;28;20027;-77
2022/12/17 14:50:12;;;;;;;112.70;44.38;;;-4.20;99.90;;;;;;5091415;28;20032;-77
2022/12/17 14:52:45;;;;;;;100.15;41.63;;;-4.30;99.90;;;;;;5092171;28;20077;-77
2022/12/17 14:55:30;;;;;;;;;;;-4.30;99.90;;;;;;5092484;28;20116;-77
2022/12/17 14:58:10;;;;;;;119.35;44.60;;;-4.30;99.90;;;;;;5094086;28;19948;-76
2022/12/17 15:00:45;;;;;;;102.38;42.22;;;-4.30;99.90;;;;;;5093797;28;20024;-74
2022/12/17 15:03:15;;;;;;;121.22;46.80;;;-4.40;99.90;;;;;;5090567;28;20370;-77
2022/12/17 15:05:41;;;;;;;149.23;61.50;;;-4.40;99.90;;;;;;5092827;28;20026;-77
2022/12/17 15:08:07;;;;;;;148.68;59.38;;;-4.50;99.90;;;;;;5094171;28;20032;-75
2022/12/17 15:10:32;;;;;;;154.43;59.22;;;-4.50;99.90;;;;;;5093160;28;20043;-77
2022/12/17 15:12:58;;;;;;;203.52;78.47;;;-4.40;99.90;;;;;;5092601;28;20047;-75
2022/12/17 15:15:23;;;;;;;174.55;73.55;;;-4.40;99.90;;;;;;5092525;28;20469;-75
2022/12/17 15:17:49;;;;;;;153.15;58.95;;;-4.40;99.90;;;;;;5093047;28;20474;-76
2022/12/17 15:20:18;;;;;;;178.95;72.05;;;-4.40;99.90;;;;;;5090693;28;20382;-75
2022/12/17 15:22:46;;;;;;;148.93;55.15;;;-4.40;99.90;;;;;;5091661;28;20016;-75
2022/12/17 15:25:14;;;;;;;144.10;57.22;;;-4.40;99.90;;;;;;5092817;28;20376;-74
2022/12/17 15:27:40;;;;;;;157.00;61.25;;;-4.40;99.90;;;;;;5092303;28;20081;-74
2022/12/17 15:30:06;;;;;;;119.45;47.47;;;-4.50;99.90;;;;;;5092326;28;20504;-74
2022/12/17 15:32:32;;;;;;;138.38;53.83;;;-4.50;99.90;;;;;;5092973;28;20053;-75
2022/12/17 15:34:57;;;;;;;163.65;65.72;;;-4.50;99.90;;;;;;5091573;28;20105;-74
2022/12/17 15:37:24;;;;;;;114.32;45.67;;;-4.50;99.90;;;;;;5092232;28;20774;-75
2022/12/17 15:39:50;;;;;;;108.03;43.90;;;-4.50;99.90;;;;;;5092587;28;20054;-74
2022/12/17 15:45:00;;;;;;;113.07;43.40;;;-4.60;99.90;;;;;;5091771;28;20523;-74
2022/12/17 15:47:26;;;;;;;127.78;50.20;;;-4.60;99.90;;;;;;5092674;28;20099;-74
2022/12/17 15:49:51;;;;;;;134.50;53.97;;;-4.60;99.90;;;;;;5092867;28;20111;-77
2022/12/17 15:52:17;;;;;;;123.45;52.42;;;-4.60;99.90;;;;;;5094200;28;20099;-74
2022/12/17 15:54:43;;;;;;;106.70;46.05;;;-4.60;99.90;;;;;;5090433;28;20020;-74
2022/12/17 15:57:09;;;;;;;115.60;45.10;;;-4.60;99.90;;;;;;5091042;28;20024;-75
2022/12/17 15:59:35;;;;;;;112.47;43.13;;;-4.60;99.90;;;;;;5092896;28;20028;-77
2022/12/17 16:02:00;;;;;;;113.70;48.45;;;-4.60;99.90;;;;;;5100035;28;20106;-74
2022/12/17 16:04:26;;;;;;;123.38;53.63;;;-4.60;99.90;;;;;;5110912;28;20073;-75
2022/12/17 16:06:52;;;;;;;118.18;49.00;;;-4.70;99.90;;;;;;5112706;28;20518;-74
2022/12/17 16:09:17;;;;;;;111.32;43.75;;;-4.60;99.90;;;;;;5113856;28;20035;-77
2022/12/17 16:11:43;;;;;;;114.50;46.53;;;-4.70;99.90;;;;;;5099067;28;20031;-77
2022/12/17 16:14:08;;;;;;;111.43;46.17;;;-4.60;99.90;;;;;;5092079;28;20095;-74
2022/12/17 16:16:34;;;;;;;113.53;44.70;;;-4.60;99.90;;;;;;5090754;28;20119;-77
2022/12/17 16:19:00;;;;;;;154.70;58.78;;;-4.50;99.90;;;;;;5089351;28;20024;-77
2022/12/17 16:21:26;;;;;;;127.70;49.78;;;-4.60;99.90;;;;;;5089857;28;20012;-77
2022/12/17 16:23:52;;;;;;;120.50;47.63;;;-4.60;99.90;;;;;;5089962;28;20031;-74
2022/12/17 16:26:17;;;;;;;146.90;60.00;;;-4.60;99.90;;;;;;5089944;28;20017;-74
2022/12/17 16:28:43;;;;;;;141.05;57.75;;;-4.60;99.90;;;;;;5090753;28;20473;-75
2022/12/17 16:31:14;;;;;;;140.70;53.53;;;-4.60;99.90;;;;;;5090040;28;20034;-74
2022/12/17 16:33:41;;;;;;;152.10;58.25;;;-4.60;99.90;;;;;;5093318;28;20050;-75
2022/12/17 16:36:10;;;;;;;116.65;52.38;;;-4.60;99.90;;;;;;5093364;28;20024;-75
2022/12/17 16:38:43;;;;;;;143.25;54.78;;;-4.60;99.90;;;;;;5093441;28;20103;-77
2022/12/17 16:41:08;;;;;;;127.53;51.80;;;-4.70;99.90;;;;;;5093386;28;20020;-74
2022/12/17 16:43:34;;;;;;;129.43;51.40;;;-4.70;99.90;;;;;;5093295;28;20099;-76
2022/12/17 16:46:00;;;;;;;128.40;49.08;;;-4.70;99.90;;;;;;5093153;28;20496;-75
2022/12/17 16:48:26;;;;;;;117.03;45.35;;;-4.80;99.90;;;;;;5092025;28;20025;-75
2022/12/17 16:50:51;;;;;;;151.05;58.75;;;-4.90;99.90;;;;;;5092973;28;20531;-74
2022/12/17 16:53:17;;;;;;;144.57;54.15;;;-4.90;99.90;;;;;;5093255;28;20024;-75
2022/12/17 16:55:45;;;;;;;196.85;67.13;;;-5.00;99.90;;;;;;5093031;28;20479;-74
2022/12/17 16:58:12;;;;;;;162.93;60.88;;;-5.10;99.90;;;;;;5093214;28;20031;-77
2022/12/17 17:00:38;;;;;;;151.13;56.25;;;-5.10;99.90;;;;;;5091912;28;20111;-74
2022/12/17 17:03:05;;;;;;;154.77;57.47;;;-5.10;99.90;;;;;;5110542;28;20098;-77
2022/12/17 17:05:32;;;;;;;148.32;55.97;;;-5.10;99.90;;;;;;5113621;28;20020;-76
2022/12/17 17:07:58;;;;;;;146.05;49.53;;;-5.20;99.90;;;;;;5113450;28;20024;-74
2022/12/17 17:10:24;;;;;;;154.07;52.22;;;-5.20;99.90;;;;;;5107197;28;20027;-74
2022/12/17 17:12:53;;;;;;;196.07;66.13;;;-5.30;99.90;;;;;;5092569;28;20024;-75
2022/12/17 17:15:19;;;;;;;143.32;56.05;;;-5.30;99.90;;;;;;5092437;28;20028;-77
2022/12/17 17:17:44;;;;;;;119.85;46.78;;;-5.30;99.90;;;;;;5094944;28;20100;-75
2022/12/17 17:20:11;;;;;;;128.27;48.17;;;-5.30;99.90;;;;;;5096368;28;20059;-77
2022/12/17 17:22:37;;;;;;;132.93;44.85;;;-5.30;99.90;;;;;;5095144;28;20016;-77
2022/12/17 17:25:03;;;;;;;129.25;47.60;;;-5.30;99.90;;;;;;5095554;28;20491;-78
2022/12/17 17:27:29;;;;;;;105.55;42.20;;;-5.30;99.90;;;;;;5095340;28;20017;-78
2022/12/17 17:29:55;;;;;;;122.43;43.40;;;-5.40;99.90;;;;;;5095279;28;20040;-77
2022/12/17 17:32:21;;;;;;;131.18;51.55;;;-5.40;99.90;;;;;;5094088;28;20051;-74
2022/12/17 17:34:47;;;;;;;126.65;45.53;;;-5.40;99.90;;;;;;5095270;28;20020;-74
2022/12/17 17:37:13;;;;;;;123.72;44.17;;;-5.50;99.90;;;;;;5095398;28;20039;-74
2022/12/17 17:39:38;;;;;;;124.68;45.40;;;-5.50;99.90;;;;;;5095218;28;20028;-75
2022/12/17 17:42:04;;;;;;;132.10;54.20;;;-5.50;99.90;;;;;;5094798;28;20055;-75
2022/12/17 17:44:30;;;;;;;122.00;42.95;;;-5.40;99.90;;;;;;5094802;28;20447;-75
2022/12/17 17:46:56;;;;;;;138.82;51.88;;;-5.50;99.90;;;;;;5093556;28;20024;-75
2022/12/17 17:49:21;;;;;;;133.32;52.67;;;-5.50;99.90;;;;;;5093735;28;20039;-75
2022/12/17 17:51:47;;;;;;;121.72;41.25;;;-5.50;99.90;;;;;;5092946;28;20028;-77
2022/12/17 17:54:13;;;;;;;113.15;41.55;;;-5.60;99.90;;;;;;5093629;28;20016;-77
2022/12/17 17:56:42;;;;;;;106.05;38.58;;;-5.60;99.90;;;;;;5094046;28;20028;-77
2022/12/17 17:59:14;;;;;;;96.13;38.42;;;-5.70;99.90;;;;;;5094622;28;20032;-78
2022/12/17 18:01:43;;;;;;;116.60;41.85;;;-5.80;99.90;;;;;;5099205;28;20059;-77
2022/12/17 18:04:14;;;;;;;112.00;41.20;;;-5.80;99.90;;;;;;5092748;28;20024;-77
2022/12/17 18:06:42;;;;;;;115.75;43.20;;;-5.90;99.90;;;;;;5090619;28;20020;-74
2022/12/17 18:09:08;;;;;;;112.47;43.63;;;-5.90;99.90;;;;;;5093320;28;20031;-73
2022/12/17 18:11:37;;;;;;;122.30;42.93;;;-5.80;99.90;;;;;;5091103;28;20020;-74
2022/12/17 18:14:04;;;;;;;93.18;37.50;;;-5.80;99.90;;;;;;5092933;28;20016;-73
2022/12/17 18:16:47;;;;;;;92.68;40.55;;;-5.80;99.90;;;;;;5089664;28;20119;-73
2022/12/17 18:19:14;;;;;;;95.60;35.95;;;-5.80;99.90;;;;;;5090692;28;20439;-74
2022/12/17 18:21:40;;;;;;;87.70;36.15;;;-5.80;99.90;;;;;;5092215;28;20028;-74
2022/12/17 18:24:22;;;;;;;95.28;37.58;;;-5.80;99.90;;;;;;5090749;28;20077;-73
2022/12/17 18:26:50;;;;;;;99.07;39.63;;;-5.80;99.90;;;;;;5088469;28;20470;-76
2022/12/17 18:29:22;;;;;;;87.50;32.72;;;-5.80;99.90;;;;;;5087140;28;20485;-76
2022/12/17 18:31:48;;;;;;;99.10;41.55;;;-5.80;99.90;;;;;;5091795;28;20040;-77
2022/12/17 18:34:16;;;;;;;88.40;32.55;;;-5.70;99.90;;;;;;5092110;28;20035;-76
2022/12/17 18:36:43;;;;;;;111.50;38.75;;;-5.80;99.90;;;;;;5093446;28;20044;-76
2022/12/17 18:39:14;;;;;;;101.90;38.58;;;-5.80;99.90;;;;;;5092659;28;20057;-76
2022/12/17 18:44:26;;;;;;;95.90;33.42;;;-5.80;99.90;;;;;;5091693;28;20119;-74
2022/12/17 18:46:52;;;;;;;103.35;39.03;;;-5.70;99.90;;;;;;5092272;28;20032;-73
2022/12/17 18:49:19;;;;;;;93.00;34.38;;;-5.80;99.90;;;;;;5091702;28;20375;-73
2022/12/17 18:51:47;;;;;;;110.10;40.47;;;-5.80;99.90;;;;;;5081828;28;20031;-73
2022/12/17 18:54:24;;;;;;;103.43;36.72;;;-5.70;99.90;;;;;;5090005;28;20088;-74
2022/12/17 18:56:51;;;;;;;93.30;37.65;;;-5.70;99.90;;;;;;5091419;28;20043;-73
2022/12/17 18:59:22;;;;;;;86.05;33.67;;;-5.70;99.90;;;;;;5092745;28;20020;-74
2022/12/17 19:01:48;;;;;;;101.80;35.45;;;-5.70;99.90;;;;;;5091513;28;20032;-73
2022/12/17 19:04:16;;;;;;;103.82;37.72;;;-5.70;99.90;;;;;;5092860;28;20480;-77
2022/12/17 19:06:43;;;;;;;110.65;40.83;;;-5.70;99.90;;;;;;5092537;28;20040;-77
2022/12/17 19:09:19;;;;;;;119.03;43.08;;;-5.70;99.90;;;;;;5092497;28;20020;-77
2022/12/17 19:11:46;;;;;;;94.13;36.28;;;-5.70;99.90;;;;;;5088711;28;20116;-76
2022/12/17 19:14:12;;;;;;;108.78;39.38;;;-5.70;99.90;;;;;;5092575;28;20024;-76
2022/12/17 19:16:38;;;;;;;125.18;45.05;;;-5.70;99.90;;;;;;5089375;28;20485;-76
2022/12/17 19:19:04;;;;;;;334.33;115.40;;;-5.70;99.90;;;;;;5092284;28;20073;-77
2022/12/17 19:21:32;;;;;;;158.55;55.83;;;-5.70;99.90;;;;;;5092760;28;20034;-77
2022/12/17 19:24:01;;;;;;;102.80;39.25;;;-5.60;99.90;;;;;;5088799;28;20030;-73
2022/12/17 19:26:28;;;;;;;129.90;51.58;;;-5.60;99.90;;;;;;5090000;28;20036;-77
2022/12/17 19:28:55;;;;;;;91.07;33.28;;;-5.60;99.90;;;;;;5091138;28;20039;-74
2022/12/17 19:31:25;;;;;;;93.65;33.30;;;-5.60;99.90;;;;;;5090801;28;20581;-73
2022/12/17 19:33:55;;;;;;;98.90;39.15;;;-5.60;99.90;;;;;;5092012;28;20057;-73
2022/12/17 19:36:22;;;;;;;168.80;63.05;;;-5.60;99.90;;;;;;5092197;28;20028;-73
2022/12/17 19:38:53;;;;;;;262.92;90.50;;;-5.60;99.90;;;;;;5091739;28;20016;-73
2022/12/17 19:41:19;;;;;;;152.52;53.38;;;-5.60;99.90;;;;;;5091697;28;20034;-73
2022/12/17 19:43:46;;;;;;;94.47;32.78;;;-5.50;99.90;;;;;;5091892;28;20016;-73
2022/12/17 19:46:14;;;;;;;98.03;35.92;;;-5.60;99.90;;;;;;5091005;28;20062;-73
2022/12/17 19:48:41;;;;;;;209.52;60.00;;;-5.60;99.90;;;;;;5090968;28;20020;-77
2022/12/17 19:51:08;;;;;;;101.82;35.42;;;-5.60;99.90;;;;;;5091061;28;20100;-76
2022/12/17 19:53:35;;;;;;;140.13;48.38;;;-5.60;99.90;;;;;;5092659;28;20377;-76
2022/12/17 19:56:08;;;;;;;125.18;41.95;;;-5.50;99.90;;;;;;5091089;28;20415;-73
2022/12/17 19:58:34;;;;;;;124.28;41.60;;;-5.50;99.90;;;;;;5092608;28;20066;-77
2022/12/17 20:01:12;;;;;;;102.25;35.97;;;-5.50;99.90;;;;;;5087596;28;20055;-76
2022/12/17 20:03:39;;;;;;;80.95;29.42;;;-5.60;99.90;;;;;;5085694;28;20020;-73
2022/12/17 20:06:05;;;;;;;95.95;35.60;;;-5.60;99.90;;;;;;5092291;28;20050;-73
2022/12/17 20:08:32;;;;;;;93.65;34.28;;;-5.50;99.90;;;;;;5092428;28;20040;-73
2022/12/17 20:10:58;;;;;;;79.43;30.73;;;-5.50;99.90;;;;;;5092007;28;20040;-76
2022/12/17 20:13:24;;;;;;;129.35;49.20;;;-5.50;99.90;;;;;;5092365;28;20047;-76
2022/12/17 20:16:02;;;;;;;121.20;41.67;;;-5.50;99.90;;;;;;5090193;28;20024;-73
2022/12/17 20:18:28;;;;;;;146.60;52.25;;;-5.50;99.90;;;;;;5090205;28;20466;-73
2022/12/17 20:21:04;;;;;;;91.57;33.83;;;-5.50;99.90;;;;;;5089829;28;20047;-73
2022/12/17 20:23:30;;;;;;;138.48;49.40;;;-5.50;99.90;;;;;;5091802;28;20024;-73
2022/12/17 20:26:07;;;;;;;117.15;42.67;;;-5.40;99.90;;;;;;5091101;28;20488;-73
2022/12/17 20:28:33;;;;;;;91.03;35.50;;;-5.40;99.90;;;;;;5088918;28;20035;-74
2022/12/17 20:31:00;;;;;;;120.90;41.88;;;-5.40;99.90;;;;;;5084962;28;20496;-73
2022/12/17 20:33:25;;;;;;;104.47;41.35;;;-5.40;99.90;;;;;;5105462;28;20015;-76
2022/12/17 20:35:52;;;;;;;170.75;57.25;;;-5.40;99.90;;;;;;5113528;28;20039;-75
2022/12/17 20:38:17;;;;;;;94.75;34.33;;;-5.40;99.90;;;;;;5101918;28;20027;-76
2022/12/17 20:40:43;;;;;;;94.72;37.45;;;-5.40;99.90;;;;;;5076295;28;20024;-76
2022/12/17 20:43:09;;;;;;;120.13;40.15;;;-5.40;99.90;;;;;;5072461;28;20210;-74
2022/12/17 20:45:34;;;;;;;106.25;38.38;;;-5.40;99.90;;;;;;5070946;28;20086;-73
2022/12/17 20:48:00;;;;;;;94.68;37.28;;;-5.40;99.90;;;;;;5071165;28;20028;-74
2022/12/17 20:50:26;;;;;;;114.55;38.60;;;-5.40;99.90;;;;;;5071004;28;20029;-73
2022/12/17 20:52:52;;;;;;;97.47;36.15;;;-5.40;99.90;;;;;;5079057;28;20473;-74
2022/12/17 20:55:18;;;;;;;126.07;42.60;;;-5.40;99.90;;;;;;5095458;28;20024;-73
2022/12/17 20:57:43;;;;;;;90.05;34.58;;;-5.40;99.90;;;;;;5096470;28;20020;-76
2022/12/17 21:00:10;;;;;;;109.75;42.95;;;-5.40;99.90;;;;;;5095417;28;20042;-73
2022/12/17 21:02:36;;;;;;;97.90;39.55;;;-5.40;99.90;;;;;;5111631;28;20419;-74
2022/12/17 21:05:02;;;;;;;113.80;43.33;;;-5.40;99.90;;;;;;5115685;28;20028;-76
2022/12/17 21:07:28;;;;;;;83.30;33.05;;;-5.40;99.90;;;;;;5115623;28;20016;-73
2022/12/17 21:09:54;;;;;;;95.35;37.05;;;-5.30;99.90;;;;;;5116308;28;20114;-74
2022/12/17 21:12:19;;;;;;;144.43;54.55;;;-5.40;99.90;;;;;;5117005;28;20030;-76
2022/12/17 21:14:45;;;;;;;129.20;44.45;;;-5.40;99.90;;;;;;5116920;28;20106;-74
2022/12/17 21:17:10;;;;;;;143.52;52.13;;;-5.30;99.90;;;;;;5116813;28;20499;-76
2022/12/17 21:19:36;;;;;;;161.18;60.00;;;-5.30;99.90;;;;;;5098146;28;20052;-73
2022/12/17 21:22:02;;;;;;;90.53;37.28;;;-5.30;99.90;;;;;;5096104;28;20562;-74
2022/12/17 21:24:27;;;;;;;98.40;35.65;;;-5.40;99.90;;;;;;5094223;28;20526;-73
2022/12/17 21:26:53;;;;;;;112.45;40.70;;;-5.40;99.90;;;;;;5094815;28;20016;-74
2022/12/17 21:29:19;;;;;;;78.40;32.53;;;-5.40;99.90;;;;;;5094720;28;20400;-74
2022/12/17 21:31:47;;;;;;;97.05;37.50;;;-5.40;99.90;;;;;;5094806;28;20536;-76
2022/12/17 21:34:16;;;;;;;122.03;42.85;;;-5.50;99.90;;;;;;5093871;28;20025;-77
2022/12/17 21:36:42;;;;;;;165.25;57.67;;;-5.50;99.90;;;;;;5095320;28;20103;-76
2022/12/17 21:39:10;;;;;;;171.52;64.45;;;-5.50;99.90;;;;;;5094567;28;20054;-77
2022/12/17 21:41:38;;;;;;;165.13;58.70;;;-5.50;99.90;;;;;;5093406;28;20027;-73
2022/12/17 21:44:06;;;;;;;95.45;36.88;;;-5.50;99.90;;;;;;5092575;28;20419;-74
2022/12/17 21:46:33;;;;;;;62.92;25.90;;;-5.50;99.90;;;;;;5094567;28;20024;-77
2022/12/17 21:49:00;;;;;;;73.10;27.88;;;-5.60;99.90;;;;;;5094961;28;20102;-76
2022/12/17 21:51:27;;;;;;;112.95;40.45;;;-5.60;99.90;;;;;;5094635;28;20034;-76
2022/12/17 21:53:58;;;;;;;171.50;59.38;;;-5.60;99.90;;;;;;5094904;28;20043;-75
2022/12/17 21:56:24;;;;;;;87.85;38.15;;;-5.60;99.90;;;;;;5095650;28;20032;-75
2022/12/17 21:58:55;;;;;;;119.47;46.13;;;-5.60;99.90;;;;;;5095634;28;20423;-76
2022/12/17 22:01:24;;;;;;;92.28;34.33;;;-5.60;99.90;;;;;;5100282;28;20023;-72
2022/12/17 22:03:51;;;;;;;70.47;28.13;;;-5.70;99.90;;;;;;5115488;28;20073;-73
2022/12/17 22:06:20;;;;;;;68.05;30.25;;;-5.70;99.90;;;;;;5115790;28;20102;-75
2022/12/17 22:08:46;;;;;;;108.00;38.72;;;-5.70;99.90;;;;;;5094000;28;20028;-75
2022/12/17 22:11:14;;;;;;;104.10;43.20;;;-5.70;99.90;;;;;;5092822;28;20032;-73
2022/12/17 22:16:27;;;;;;;86.45;35.92;;;-5.70;99.90;;;;;;5095663;28;20516;-74
2022/12/17 22:18:53;;;;;;;85.57;33.25;;;-5.70;99.90;;;;;;5093620;28;20084;-73
2022/12/17 22:21:19;;;;;;;114.13;42.50;;;-5.70;99.90;;;;;;5095023;28;20028;-75
2022/12/17 22:23:48;;;;;;;52.10;22.77;;;-5.70;99.90;;;;;;5094037;28;20031;-75
2022/12/17 22:26:18;;;;;;;60.22;25.60;;;-5.70;99.90;;;;;;5093840;28;20524;-73
2022/12/17 22:28:48;;;;;;;128.88;46.95;;;-5.80;99.90;;;;;;5094047;28;20028;-73
2022/12/17 22:34:01;;;;;;;64.75;24.70;;;-5.70;99.90;;;;;;5095427;28;20081;-73
2022/12/17 22:36:28;;;;;;;45.78;20.48;;;-5.80;99.90;;;;;;5093783;28;20024;-73
2022/12/17 22:38:54;;;;;;;48.72;20.95;;;-5.90;99.90;;;;;;5095086;28;20016;-75
2022/12/17 22:44:04;;;;;;;96.25;36.35;;;-6.00;99.90;;;;;;5095167;28;20039;-75
2022/12/17 22:46:30;;;;;;;54.38;21.75;;;-5.90;99.90;;;;;;5094874;28;20016;-75
2022/12/17 22:48:57;;;;;;;75.90;28.92;;;-5.90;99.90;;;;;;5093569;28;20020;-75
2022/12/17 22:51:24;;;;;;;53.17;22.95;;;-6.00;99.90;;;;;;5094663;28;20028;-73
2022/12/17 22:53:51;;;;;;;87.45;32.08;;;-6.00;99.90;;;;;;5094636;28;20047;-73
2022/12/17 22:56:17;;;;;;;46.08;21.35;;;-6.00;99.90;;;;;;5094778;28;20024;-75
2022/12/17 22:58:44;;;;;;;46.90;22.58;;;-6.00;99.90;;;;;;5094634;28;20453;-75
2022/12/17 23:01:09;;;;;;;109.57;40.83;;;-6.00;99.90;;;;;;5098039;28;20020;-75
2022/12/17 23:03:35;;;;;;;56.70;23.50;;;-6.00;99.90;;;;;;5113583;28;20031;-78
2022/12/17 23:06:15;;;;;;;77.78;30.38;;;-6.00;99.90;;;;;;5113610;28;20049;-75
2022/12/17 23:08:41;;;;;;;84.32;29.48;;;-6.00;99.90;;;;;;5113621;28;20055;-75
2022/12/17 23:11:14;;;;;;;70.60;31.95;;;-6.00;99.90;;;;;;5114623;28;20059;-75
2022/12/17 23:13:41;;;;;;;;;;;-5.90;99.90;;;;;;5115031;28;20530;-75
2022/12/17 23:16:09;;;;;;;87.72;30.25;;;-5.90;99.90;;;;;;5112853;28;19907;-73
2022/12/17 23:18:35;;;;;;;90.20;32.35;;;-5.90;99.90;;;;;;5104288;28;20106;-75
2022/12/17 23:21:27;;;;;;;85.43;30.85;;;-5.90;99.90;;;;;;5092695;28;20858;-75
2022/12/17 23:23:54;;;;;;;81.50;30.23;;;-5.90;99.90;;;;;;5093896;28;20047;-73
2022/12/17 23:26:26;;;;;;;52.80;23.58;;;-5.90;99.90;;;;;;5094134;28;20016;-74
2022/12/17 23:28:55;;;;;;;105.55;36.53;;;-5.80;99.90;;;;;;5092334;28;20019;-73
2022/12/17 23:31:21;;;;;;;140.90;48.55;;;-5.80;99.90;;;;;;5093771;28;20036;-75
2022/12/17 23:33:47;;;;;;;86.15;33.65;;;-5.80;99.90;;;;;;5093962;28;20477;-73
2022/12/17 23:36:18;;;;;;;98.95;36.33;;;-5.80;99.90;;;;;;5093910;28;20032;-73
2022/12/17 23:38:45;;;;;;;102.40;37.95;;;-5.90;99.90;;;;;;5092699;28;20063;-73
2022/12/17 23:41:17;;;;;;;61.75;24.77;;;-5.80;99.90;;;;;;5093770;28;20020;-75
2022/12/17 23:43:44;;;;;;;66.18;22.70;;;-5.80;99.90;;;;;;5092349;28;20153;-73
2022/12/17 23:46:10;;;;;;;85.38;32.38;;;-5.80;99.90;;;;;;5093928;28;20019;-72
2022/12/17 23:48:38;;;;;;;129.00;47.13;;;-5.80;99.90;;;;;;5093691;28;20023;-75
2022/12/17 23:51:04;;;;;;;73.53;28.58;;;-5.80;99.90;;;;;;5092324;28;20110;-73
2022/12/17 23:53:32;;;;;;;91.07;37.80;;;-5.80;99.90;;;;;;5092473;28;20110;-75
2022/12/17 23:56:25;;;;;;;65.70;24.60;;;-5.80;99.90;;;;;;5093679;28;20020;-74
2022/12/17 23:58:56;;;;;;;74.80;29.33;;;-5.80;99.90;;;;;;5092029;28;20503;-74
